Time;durP1;ratioP1;P1;durP2;ratioP2;P2;SDS_P1;SDS_P2;PMS_P1;PMS_P2;Temp;Humidity;BMP_temperature;BMP_pressure;BME280_temperature;BME280_humidity;BME280_pressure;Samples;Min_cycle;Max_cycle;Signal;HPM_P1;HPM_P2
2021/07/20 00:01:30;;;;;;;17.73;10.20;;;;;;;15.28;68.40;100414.51;1996194;89;30065;-60
2021/07/20 00:04:33;;;;;;;24.70;12.65;;;;;;;15.27;68.46;100415.47;2004017;87;31097;-60
2021/07/20 00:07:36;;;;;;;20.25;11.53;;;;;;;15.25;68.64;100411.52;2036469;87;33128;-60
2021/07/20 00:10:51;;;;;;;19.15;11.30;;;;;;;15.23;68.66;100413.44;2036196;87;30192;-60
2021/07/20 00:13:54;;;;;;;22.32;11.95;;;;;;;15.22;68.69;100406.81;2036424;87;28322;-60
2021/07/20 00:16:56;;;;;;;22.32;11.55;;;;;;;15.20;68.75;100410.98;2033641;87;28712;-59
2021/07/20 00:20:00;;;;;;;20.40;11.50;;;;;;;15.15;68.91;100405.86;2036046;87;31156;-59
2021/07/20 00:23:06;;;;;;;22.58;11.65;;;;;;;15.11;68.99;100409.77;2036249;87;33392;-59
2021/07/20 00:26:09;;;;;;;20.30;10.20;;;;;;;15.07;69.08;100409.58;2009170;87;29344;-60
2021/07/20 00:29:11;;;;;;;24.20;9.85;;;;;;;15.07;69.26;100408.23;1996837;89;27531;-59
2021/07/20 00:32:13;;;;;;;19.40;11.53;;;;;;;15.09;69.29;100403.59;1996102;89;29913;-59
2021/07/20 00:35:16;;;;;;;19.57;12.55;;;;;;;15.13;69.42;100406.48;1995992;87;32285;-59
2021/07/20 00:38:18;;;;;;;22.15;11.63;;;;;;;15.16;69.38;100405.40;1989297;89;34096;-60
2021/07/20 00:41:21;;;;;;;18.30;10.00;;;;;;;15.18;69.53;100411.56;1988877;89;30638;-59
2021/07/20 00:44:23;;;;;;;22.40;11.25;;;;;;;15.21;69.52;100404.61;1993357;87;27965;-59
2021/07/20 00:47:25;;;;;;;20.75;11.22;;;;;;;15.24;69.44;100409.78;2036721;87;29089;-59
2021/07/20 00:50:33;;;;;;;21.87;11.97;;;;;;;15.25;69.51;100402.56;2036374;87;31923;-59
2021/07/20 00:53:35;;;;;;;22.93;11.15;;;;;;;15.25;69.49;100403.91;2004289;87;33931;-59
2021/07/20 00:56:38;;;;;;;21.77;10.10;;;;;;;15.26;69.51;100404.30;1987578;88;29316;-59
2021/07/20 00:59:40;;;;;;;19.65;11.05;;;;;;;15.28;69.50;100403.21;1985083;89;27876;-59
2021/07/20 01:02:43;;;;;;;18.00;10.93;;;;;;;15.30;69.59;100396.37;2000038;87;30162;-59
2021/07/20 01:05:46;;;;;;;19.00;11.57;;;;;;;15.32;69.62;100397.99;2016011;88;31759;-59
2021/07/20 01:08:51;;;;;;;18.20;10.20;;;;;;;15.36;69.58;100397.29;2016182;88;33745;-59
2021/07/20 01:11:55;;;;;;;15.60;10.80;;;;;;;15.38;69.63;100384.55;2008231;88;29499;-58
2021/07/20 01:14:57;;;;;;;17.65;10.95;;;;;;;15.41;69.64;100386.17;1980280;87;27711;-58
2021/07/20 01:18:04;;;;;;;19.67;10.68;;;;;;;15.42;69.59;100391.95;1979707;89;29312;-58
2021/07/20 01:21:13;;;;;;;19.75;10.55;;;;;;;15.39;69.50;100393.03;1964161;90;31103;-58
2021/07/20 01:24:16;;;;;;;24.00;10.90;;;;;;;15.37;69.59;100392.27;1981377;87;32989;-58
2021/07/20 01:27:19;;;;;;;16.42;9.93;;;;;;;15.37;69.56;100396.32;1980296;89;30131;-58
2021/07/20 01:30:21;;;;;;;21.50;10.85;;;;;;;15.39;69.55;100394.39;1980371;89;27639;-58
2021/07/20 01:33:24;;;;;;;25.65;10.93;;;;;;;15.43;69.65;100386.93;1977276;88;29609;-58
2021/07/20 01:36:28;;;;;;;23.12;12.55;;;;;;;15.44;69.65;100380.09;1991682;89;31761;-59
2021/07/20 01:39:30;;;;;;;15.60;10.60;;;;;;;15.45;69.65;100374.20;1991770;88;32779;-59
2021/07/20 01:42:34;;;;;;;19.23;12.07;;;;;;;15.48;69.60;100369.44;1995730;87;30530;-58
2021/07/20 01:45:38;;;;;;;18.37;10.93;;;;;;;15.48;69.62;100364.04;1991638;88;27633;-59
2021/07/20 01:48:44;;;;;;;17.40;10.53;;;;;;;15.46;69.55;100364.66;2011075;88;29484;-59
2021/07/20 01:51:49;;;;;;;17.02;9.55;;;;;;;15.45;69.58;100362.93;2015037;87;31021;-58
2021/07/20 01:54:51;;;;;;;21.87;11.33;;;;;;;15.46;69.58;100369.18;1998974;87;33829;-59
2021/07/20 01:57:56;;;;;;;17.27;11.25;;;;;;;15.48;69.61;100363.19;1981448;89;30493;-58
2021/07/20 02:00:59;;;;;;;21.25;11.12;;;;;;;15.48;69.56;100365.89;1980375;89;27653;-59
2021/07/20 02:04:35;;;;;;;15.88;10.03;;;;;;;15.48;69.63;100365.89;1978687;88;30478;-59
2021/07/20 02:10:43;;;;;;;17.15;10.28;;;;;;;15.47;69.56;100370.91;1969427;89;34158;-58
2021/07/20 02:13:52;;;;;;;19.00;10.98;;;;;;;15.43;69.54;100370.27;1976208;88;29686;-58
2021/07/20 02:16:57;;;;;;;19.52;9.65;;;;;;;15.41;69.55;100365.92;2017880;88;27700;-59
2021/07/20 02:20:10;;;;;;;19.32;10.00;;;;;;;15.34;69.60;100366.37;2012246;88;29946;-58
2021/07/20 02:23:13;;;;;;;16.80;9.73;;;;;;;15.36;69.70;100371.64;1974423;89;32259;-59
2021/07/20 02:26:15;;;;;;;18.00;10.23;;;;;;;15.38;69.72;100371.06;1973984;89;32996;-59
2021/07/20 02:29:17;;;;;;;15.18;9.65;;;;;;;15.36;69.66;100367.59;1974610;89;30190;-59
2021/07/20 02:32:21;;;;;;;20.15;10.55;;;;;;;15.37;69.68;100372.53;1977483;88;27699;-59
2021/07/20 02:35:26;;;;;;;15.98;10.50;;;;;;;15.38;69.71;100375.11;1974773;90;28670;-59
2021/07/20 02:38:29;;;;;;;15.90;10.53;;;;;;;15.36;69.60;100371.64;1974793;89;31207;-59
2021/07/20 02:41:31;;;;;;;15.85;9.43;;;;;;;15.32;69.67;100373.70;1981112;88;34361;-59
2021/07/20 02:44:33;;;;;;;14.75;10.18;;;;;;;15.29;69.61;100376.60;1980919;88;30667;-59
2021/07/20 02:47:37;;;;;;;15.95;9.75;;;;;;;15.27;69.66;100380.39;1989114;89;27705;-59
2021/07/20 02:50:39;;;;;;;14.68;9.50;;;;;;;15.24;69.70;100380.59;2006865;87;28665;-59
2021/07/20 02:53:43;;;;;;;19.23;9.60;;;;;;;15.24;69.69;100377.89;2017060;88;31467;-59
2021/07/20 02:56:45;;;;;;;20.88;10.40;;;;;;;15.26;69.75;100378.66;2017485;88;34231;-59
2021/07/20 02:59:48;;;;;;;16.10;9.75;;;;;;;15.27;69.83;100378.54;1981718;87;30759;-59
2021/07/20 03:02:50;;;;;;;15.85;10.43;;;;;;;15.29;69.83;100376.60;1984291;89;27778;-59
2021/07/20 03:05:53;;;;;;;15.75;10.38;;;;;;;15.29;69.88;100381.15;1949124;89;28689;-59
2021/07/20 03:08:58;;;;;;;16.85;10.10;;;;;;;15.30;69.84;100381.53;1998783;87;31810;-59
2021/07/20 03:12:03;;;;;;;19.30;10.93;;;;;;;15.29;69.92;100381.15;2031265;87;33913;-59
2021/07/20 03:15:06;;;;;;;;;;;;;;;15.28;69.91;100374.88;2032714;87;29470;-59
2021/07/20 03:18:08;;;;;;;19.65;10.28;;;;;;;15.26;69.94;100376.80;2031291;87;27544;-59
2021/07/20 03:21:12;;;;;;;17.30;9.83;;;;;;;15.27;70.06;100373.64;2031846;86;29860;-59
2021/07/20 03:24:14;;;;;;;17.55;10.32;;;;;;;15.29;70.11;100376.60;2031242;86;31218;-59
2021/07/20 03:27:16;;;;;;;15.18;9.03;;;;;;;15.33;70.10;100374.08;2030620;86;33594;-59
2021/07/20 03:30:18;;;;;;;15.45;10.60;;;;;;;15.33;70.04;100378.12;2030623;87;29315;-59
2021/07/20 03:33:23;;;;;;;17.48;9.55;;;;;;;15.35;70.06;100372.61;2034340;86;27712;-59
2021/07/20 03:36:26;;;;;;;12.00;7.42;;;;;;;15.35;70.06;100375.31;2032131;87;29211;-59
2021/07/20 03:39:28;;;;;;;17.48;9.43;;;;;;;15.38;70.13;100376.45;2044281;86;31082;-60
2021/07/20 03:42:31;;;;;;;18.55;11.03;;;;;;;15.41;70.17;100371.32;2031071;87;34112;-59
2021/07/20 03:45:33;;;;;;;20.50;9.95;;;;;;;15.46;70.28;100377.28;2030837;86;29144;-59
2021/07/20 03:48:35;;;;;;;16.70;9.53;;;;;;;15.51;70.18;100373.78;2030553;87;27696;-60
2021/07/20 03:51:37;;;;;;;16.30;10.05;;;;;;;15.55;70.13;100368.56;2031076;87;29061;-60
2021/07/20 03:54:40;;;;;;;23.07;12.25;;;;;;;15.61;70.18;100368.11;2031186;86;32300;-59
2021/07/20 03:57:41;;;;;;;18.35;10.45;;;;;;;15.68;70.17;100369.89;1989999;87;33050;-60
2021/07/20 04:00:47;;;;;;;18.65;10.45;;;;;;;15.78;70.22;100371.46;1958070;90;29526;-59
2021/07/20 04:03:51;;;;;;;15.45;9.63;;;;;;;15.89;70.24;100368.04;1957509;90;27672;-59
2021/07/20 04:06:54;;;;;;;17.57;9.38;;;;;;;15.97;70.08;100367.49;1959204;89;28665;-60
2021/07/20 04:09:56;;;;;;;18.95;10.78;;;;;;;16.03;70.11;100367.06;1981154;89;31948;-59
2021/07/20 04:12:58;;;;;;;16.90;10.10;;;;;;;16.10;69.86;100379.14;1983956;89;33675;-70
2021/07/20 04:16:08;;;;;;;18.87;10.48;;;;;;;16.15;69.93;100376.11;1984240;89;29730;-70
2021/07/20 04:19:15;;;;;;;17.90;11.33;;;;;;;16.18;69.81;100374.54;1980417;89;27753;-70
2021/07/20 04:22:20;;;;;;;13.85;9.05;;;;;;;16.23;69.86;100376.44;1979411;89;28756;-58
2021/07/20 04:25:26;;;;;;;16.10;9.08;;;;;;;16.28;69.82;100374.27;1976547;90;31271;-59
2021/07/20 04:28:34;;;;;;;16.82;9.03;;;;;;;16.38;69.82;100374.47;1967189;89;33741;-59
2021/07/20 04:31:44;;;;;;;16.10;9.53;;;;;;;16.45;69.78;100379.78;1959794;90;27661;-58
2021/07/20 04:34:49;;;;;;;21.50;9.60;;;;;;;16.52;69.67;100382.42;1957933;90;27759;-59
2021/07/20 04:37:53;;;;;;;16.07;9.43;;;;;;;16.60;69.66;100376.92;1959564;89;28702;-58
2021/07/20 04:40:57;;;;;;;13.22;8.75;;;;;;;16.69;69.55;100387.08;1940154;90;31490;-59
2021/07/20 04:44:00;;;;;;;16.37;9.07;;;;;;;16.77;69.40;100380.59;1958224;90;33234;-58
2021/07/20 04:47:01;;;;;;;17.60;9.73;;;;;;;16.83;69.33;100384.20;1960819;89;30361;-59
2021/07/20 04:50:09;;;;;;;16.45;10.10;;;;;;;16.94;69.34;100386.59;1966324;90;27647;-58
2021/07/20 04:53:14;;;;;;;20.70;8.58;;;;;;;17.09;69.27;100388.67;1974966;90;28669;-58
2021/07/20 04:56:15;;;;;;;15.20;8.45;;;;;;;17.21;68.98;100384.17;1974537;89;31444;-58
2021/07/20 04:59:18;;;;;;;14.18;8.80;;;;;;;17.35;68.91;100381.27;1969965;89;33890;-59
2021/07/20 05:02:24;;;;;;;13.70;9.00;;;;;;;17.48;68.72;100379.80;2011484;88;30750;-59
2021/07/20 05:05:38;;;;;;;13.28;8.28;;;;;;;17.62;68.67;100385.52;2015722;88;28319;-58
2021/07/20 05:08:43;;;;;;;15.95;9.13;;;;;;;17.80;68.42;100389.96;1998433;87;29576;-58
2021/07/20 05:11:44;;;;;;;;;;;;;;;17.99;68.26;100389.90;1983216;89;31219;-58
2021/07/20 05:14:47;;;;;;;13.48;7.83;;;;;;;18.25;67.94;100390.52;1980684;89;33465;-58
2021/07/20 05:17:49;;;;;;;13.55;9.00;;;;;;;18.56;67.87;100387.17;1983231;87;30328;-58
2021/07/20 05:20:59;;;;;;;16.25;7.87;;;;;;;18.79;67.26;100398.84;1963252;89;27653;-59
2021/07/20 05:24:06;;;;;;;16.23;8.03;;;;;;;19.03;66.96;100396.47;1980456;89;28786;-58
2021/07/20 05:27:10;;;;;;;13.45;7.55;;;;;;;19.16;66.29;100402.59;1979744;89;31808;-59
2021/07/20 05:30:14;;;;;;;13.28;8.15;;;;;;;19.30;65.93;100414.13;2013402;87;33076;-59
2021/07/20 05:33:19;;;;;;;17.90;8.65;;;;;;;19.31;65.54;100409.91;2013728;87;30237;-59
2021/07/20 05:36:22;;;;;;;16.93;7.87;;;;;;;19.38;65.39;100409.77;2014161;88;27718;-59
2021/07/20 05:39:24;;;;;;;11.48;8.40;;;;;;;19.48;65.22;100408.97;1991248;87;29450;-59
2021/07/20 05:42:29;;;;;;;13.13;8.17;;;;;;;19.56;64.90;100413.27;1980440;88;31823;-59
2021/07/20 05:45:32;;;;;;;13.68;8.00;;;;;;;19.60;64.79;100422.88;1979874;89;33422;-59
2021/07/20 05:48:36;;;;;;;12.03;7.62;;;;;;;19.70;64.55;100419.73;1983316;87;30430;-59
2021/07/20 05:51:39;;;;;;;13.43;8.25;;;;;;;19.82;64.35;100427.33;1972795;89;28173;-59
2021/07/20 05:54:45;;;;;;;11.65;7.80;;;;;;;19.96;64.17;100432.92;1980351;88;28558;-59
2021/07/20 05:57:50;;;;;;;12.40;7.70;;;;;;;20.04;63.75;100440.41;1993162;87;31046;-59
2021/07/20 06:01:00;;;;;;;12.70;7.72;;;;;;;20.14;63.49;100435.91;2036792;87;57839;-59
2021/07/20 06:04:04;;;;;;;18.10;8.10;;;;;;;20.26;63.34;100431.73;2036716;87;30063;-59
2021/07/20 06:07:09;;;;;;;13.08;7.60;;;;;;;20.36;63.13;100438.06;2032852;87;27725;-59
2021/07/20 06:10:19;;;;;;;15.85;7.70;;;;;;;20.49;62.96;100452.80;2033878;87;29586;-59
2021/07/20 06:13:24;;;;;;;11.20;7.37;;;;;;;20.57;62.58;100448.91;2031613;87;31843;-59
2021/07/20 06:16:29;;;;;;;12.13;7.33;;;;;;;20.66;62.60;100445.86;2004544;88;33038;-59
2021/07/20 06:19:33;;;;;;;10.50;7.83;;;;;;;20.70;62.25;100444.56;2005158;87;33131;-59
2021/07/20 06:22:40;;;;;;;12.28;7.80;;;;;;;20.77;61.83;100440.81;1982711;88;28305;-59
2021/07/20 06:25:43;;;;;;;11.50;7.10;;;;;;;20.91;61.65;100443.66;2002522;88;29458;-59
2021/07/20 06:28:50;;;;;;;13.83;7.30;;;;;;;21.12;61.59;100439.45;2015737;87;31077;-59
2021/07/20 06:31:53;;;;;;;16.40;7.90;;;;;;;21.44;61.53;100440.20;2010317;87;32994;-59
2021/07/20 06:34:56;;;;;;;12.47;7.70;;;;;;;21.81;61.01;100440.85;2031114;87;29938;-59
2021/07/20 06:37:59;;;;;;;12.57;7.43;;;;;;;22.25;60.55;100443.05;2029065;87;27723;-59
2021/07/20 06:41:02;;;;;;;11.85;7.22;;;;;;;22.64;59.92;100445.62;2012507;87;29458;-59
2021/07/20 06:44:06;;;;;;;10.10;7.03;;;;;;;22.99;59.40;100442.61;2031385;87;31472;-59
2021/07/20 06:47:09;;;;;;;13.15;6.87;;;;;;;23.47;58.78;100435.59;2031174;87;33783;-59
2021/07/20 06:50:14;;;;;;;11.03;7.92;;;;;;;23.90;58.08;100431.66;2005325;87;30101;-60
2021/07/20 06:53:16;;;;;;;11.65;6.42;;;;;;;24.87;57.78;100435.62;1998690;88;27759;-60
2021/07/20 06:56:26;;;;;;;13.93;6.92;;;;;;;26.02;56.24;100439.50;2002240;88;29545;-59
2021/07/20 06:59:29;;;;;;;13.58;6.28;;;;;;;26.74;55.00;100438.62;1990264;87;32094;-60
2021/07/20 07:02:33;;;;;;;8.45;6.17;;;;;;;27.18;53.85;100439.08;1988920;89;33389;-60
2021/07/20 07:05:34;;;;;;;9.18;6.85;;;;;;;27.85;53.40;100434.80;1988755;88;30174;-60
2021/07/20 07:08:38;;;;;;;11.10;6.03;;;;;;;28.63;51.76;100433.94;1990039;88;27682;-60
2021/07/20 07:11:40;;;;;;;8.35;5.62;;;;;;;29.31;50.58;100429.23;1990403;89;28812;-60
2021/07/20 07:14:44;;;;;;;7.08;4.90;;;;;;;29.99;50.01;100428.31;2013177;87;31894;-60
2021/07/20 07:17:49;;;;;;;9.70;5.03;;;;;;;30.65;48.37;100434.99;1985738;87;33703;-67
2021/07/20 07:24:07;;;;;;;7.30;5.12;;;;;;;30.71;45.81;100427.23;1879990;87;27880;-61
2021/07/20 07:27:50;;;;;;;7.85;4.92;;;;;;;30.68;45.64;100426.29;1890907;91;28780;-61
2021/07/20 07:30:25;;;;;;;8.95;5.65;;;;;;;30.49;44.83;100426.47;1864227;93;27904;-63
2021/07/20 07:33:30;;;;;;;11.35;4.65;;;;;;;30.47;43.49;100432.22;1911331;93;33093;-62
2021/07/20 07:36:35;;;;;;;8.03;5.12;;;;;;;30.37;43.63;100429.82;1911437;93;29409;-62
2021/07/20 07:39:38;;;;;;;8.63;5.47;;;;;;;30.32;42.98;100425.42;1892234;93;27893;-61
2021/07/20 07:42:42;;;;;;;7.50;5.30;;;;;;;30.58;42.76;100426.13;1911495;93;28532;-62
2021/07/20 07:45:48;;;;;;;9.20;4.95;;;;;;;30.78;41.89;100432.28;1911639;93;31227;-62
2021/07/20 07:48:50;;;;;;;10.53;5.17;;;;;;;30.99;41.69;100429.89;1911597;93;33615;-63
2021/07/20 07:51:53;;;;;;;11.80;5.53;;;;;;;30.98;41.51;100428.19;1912299;93;29550;-63
2021/07/20 07:54:55;;;;;;;7.25;4.70;;;;;;;30.92;41.15;100431.26;1896227;92;27902;-63
2021/07/20 07:57:57;;;;;;;7.33;5.05;;;;;;;30.97;40.68;100429.79;1893653;94;29945;-61
2021/07/20 08:01:04;;;;;;;7.50;5.25;;;;;;;30.81;40.49;100436.02;1955714;86;31277;-61
2021/07/20 08:04:06;;;;;;;7.95;4.87;;;;;;;30.97;40.60;100428.41;2053873;86;34134;-62
2021/07/20 08:07:08;;;;;;;9.58;5.25;;;;;;;31.04;40.21;100429.27;2054157;86;30113;-62
2021/07/20 08:10:12;;;;;;;9.28;5.05;;;;;;;31.07;39.35;100426.08;2053842;86;27637;-63
2021/07/20 08:13:14;;;;;;;9.90;5.23;;;;;;;31.05;39.16;100423.54;2054124;86;28610;-62
2021/07/20 08:16:17;;;;;;;7.17;5.03;;;;;;;31.21;38.90;100412.63;2054091;86;31213;-63
2021/07/20 08:19:20;;;;;;;10.00;5.17;;;;;;;31.64;39.16;100413.31;2053614;86;35090;-62
2021/07/20 08:22:23;;;;;;;6.58;4.60;;;;;;;31.83;38.32;100408.86;2052760;86;29206;-62
2021/07/20 08:25:39;;;;;;;8.65;5.08;;;;;;;32.01;38.56;100408.22;2053040;85;33512;-61
2021/07/20 08:29:11;;;;;;;9.35;5.90;;;;;;;32.17;37.81;100408.82;2087176;85;29516;-62
2021/07/20 08:32:16;;;;;;;7.97;5.00;;;;;;;32.20;37.78;100404.20;2063326;85;31072;-62
2021/07/20 08:35:23;;;;;;;9.85;5.30;;;;;;;32.57;36.88;100403.16;2063587;86;32968;-62
2021/07/20 08:38:26;;;;;;;5.83;5.10;;;;;;;33.02;37.63;100409.27;2062882;86;30318;-62
2021/07/20 08:42:05;;;;;;;11.78;5.17;;;;;;;33.12;36.57;100407.40;2063661;86;27803;-62
2021/07/20 08:45:18;;;;;;;8.93;5.30;;;;;;;32.67;36.15;100406.34;2063312;86;29354;-62
2021/07/20 08:48:33;;;;;;;9.13;5.87;;;;;;;32.12;36.21;100409.45;2065064;84;31406;-61
2021/07/20 08:51:58;;;;;;;12.65;5.30;;;;;;;31.68;36.33;100406.30;2071706;85;33012;-61
2021/07/20 08:55:13;;;;;;;6.40;4.70;;;;;;;31.19;36.59;100403.67;2066754;85;29434;-63
2021/07/20 08:58:36;;;;;;;7.62;4.75;;;;;;;30.52;35.93;100409.47;2070249;85;27801;-63
2021/07/20 09:01:56;;;;;;;6.17;4.87;;;;;;;29.97;36.36;100417.11;2037350;84;28837;-60
2021/07/20 09:05:26;;;;;;;7.47;4.97;;;;;;;29.87;35.96;100417.44;2073143;84;31037;-61
2021/07/20 09:09:02;;;;;;;6.55;4.37;;;;;;;29.75;35.80;100414.91;2075134;84;33136;-62
2021/07/20 09:12:26;;;;;;;9.15;5.03;;;;;;;29.73;36.64;100417.88;2029561;86;30328;-60
2021/07/20 09:15:29;;;;;;;8.35;5.58;;;;;;;30.12;36.94;100413.71;2078234;84;28250;-61
2021/07/20 09:18:45;;;;;;;7.20;4.97;;;;;;;30.02;36.76;100420.14;2079698;84;32760;-63
2021/07/20 09:21:50;;;;;;;8.70;5.40;;;;;;;29.66;36.53;100419.20;2082296;84;31152;-64
2021/07/20 09:25:15;;;;;;;13.03;5.45;;;;;;;29.18;36.90;100416.17;2063132;84;33753;-60
2021/07/20 09:28:40;;;;;;;10.18;4.85;;;;;;;28.71;37.31;100418.36;2059745;84;27760;-65
2021/07/20 09:32:01;;;;;;;11.03;5.37;;;;;;;28.23;37.60;100414.63;2062221;84;27667;-65
2021/07/20 10:17:19;;;;;;;7.80;3.98;;;;;;;23.69;44.67;100420.56;1726199;101;29847;-67
2021/07/20 10:20:23;;;;;;;8.85;4.70;;;;;;;23.55;45.00;100419.27;1720877;102;27770;-63
2021/07/20 10:23:54;;;;;;;7.58;4.37;;;;;;;23.49;45.28;100414.42;1803622;95;29959;-74
2021/07/20 10:27:08;;;;;;;6.33;4.58;;;;;;;23.51;45.49;100415.12;1942925;89;32276;-73
2021/07/20 10:30:13;;;;;;;6.83;4.28;;;;;;;23.54;45.81;100416.67;2014889;88;33178;-71
2021/07/20 10:33:25;;;;;;;6.22;3.95;;;;;;;23.53;45.79;100414.47;2021327;88;29319;-72
2021/07/20 10:36:32;;;;;;;7.35;4.42;;;;;;;23.60;46.23;100415.53;2021024;87;27705;-71
2021/07/20 10:39:42;;;;;;;19.27;5.17;;;;;;;23.73;46.27;100408.81;2020695;87;28670;-63
2021/07/20 10:43:15;;;;;;;6.72;4.30;;;;;;;23.83;46.40;100409.03;2021318;88;31045;-63
2021/07/20 10:46:18;;;;;;;8.55;4.53;;;;;;;24.01;46.39;100404.05;2021269;88;33788;-63
2021/07/20 10:49:34;;;;;;;9.23;4.65;;;;;;;24.19;46.17;100403.13;2018001;88;30277;-73
2021/07/20 10:53:10;;;;;;;5.78;4.47;;;;;;;24.35;46.05;100397.73;2015247;88;27645;-74
2021/07/20 10:56:29;;;;;;;9.05;4.00;;;;;;;24.51;45.54;100401.56;2012896;88;28797;-75
2021/07/20 11:00:10;;;;;;;8.18;4.87;;;;;;;24.73;45.78;100405.11;1989146;88;31401;-75
2021/07/20 11:03:43;;;;;;;8.45;4.50;;;;;;;24.93;45.13;100403.95;2020964;87;33903;-76
2021/07/20 11:06:47;;;;;;;8.28;4.00;;;;;;;25.15;45.01;100406.05;2019913;88;30555;-78
2021/07/20 11:09:50;;;;;;;10.35;4.15;;;;;;;25.41;44.38;100401.45;2015406;88;28325;-77
2021/07/20 11:12:57;;;;;;;6.17;4.40;;;;;;;25.55;44.79;100396.67;2018074;88;28766;-74
2021/07/20 11:16:03;;;;;;;9.85;4.33;;;;;;;25.79;44.89;100390.83;2015050;88;31151;-62
2021/07/20 11:19:07;;;;;;;5.15;3.98;;;;;;;26.07;44.85;100389.05;2015529;88;33013;-62
2021/07/20 11:22:10;;;;;;;12.88;4.85;;;;;;;26.39;44.28;100387.25;2015085;88;35331;-74
2021/07/20 11:25:13;;;;;;;8.10;4.60;;;;;;;26.60;43.08;100389.38;2015051;88;27741;-74
2021/07/20 11:28:17;;;;;;;8.73;4.35;;;;;;;26.70;41.81;100394.66;2015333;88;28723;-75
2021/07/20 11:31:47;;;;;;;6.60;4.33;;;;;;;26.65;41.86;100393.83;1997041;88;31991;-74
2021/07/20 11:35:06;;;;;;;9.48;4.10;;;;;;;26.67;41.87;100395.02;2014936;88;34220;-73
2021/07/20 11:38:12;;;;;;;6.00;4.15;;;;;;;26.64;41.48;100388.00;2015242;88;30641;-74
2021/07/20 11:41:41;;;;;;;7.65;5.05;;;;;;;26.66;41.76;100392.80;2014533;88;28277;-74
2021/07/20 11:44:57;;;;;;;6.97;4.35;;;;;;;26.59;41.14;100385.45;2014574;87;29462;-73
2021/07/20 11:48:08;;;;;;;6.30;3.70;;;;;;;26.39;40.52;100385.87;2003115;87;31739;-74
2021/07/20 11:51:28;;;;;;;7.65;4.15;;;;;;;26.28;41.24;100383.00;1993301;88;34182;-75
2021/07/20 11:55:01;;;;;;;6.55;4.25;;;;;;;26.30;41.48;100393.30;2019767;87;29808;-73
2021/07/20 11:58:08;;;;;;;7.75;4.45;;;;;;;26.29;41.34;100386.62;2018612;87;27679;-74
2021/07/20 12:01:37;;;;;;;8.18;4.33;;;;;;;26.44;42.13;100388.08;2017476;87;28611;-66
2021/07/20 12:05:05;;;;;;;9.38;4.87;;;;;;;26.49;41.64;100385.14;2007561;88;32359;-73
2021/07/20 12:08:18;;;;;;;13.20;4.65;;;;;;;26.46;42.17;100380.02;2009505;88;34284;-74
2021/07/20 12:11:25;;;;;;;8.70;5.42;;;;;;;26.57;42.33;100386.14;2020162;87;29689;-71
2021/07/20 12:14:30;;;;;;;4.72;4.20;;;;;;;26.77;42.52;100383.80;2020055;88;27645;-75
2021/07/20 12:17:33;;;;;;;5.28;4.45;;;;;;;26.78;41.55;100376.77;2019907;88;28640;-73
2021/07/20 12:20:36;;;;;;;8.03;4.20;;;;;;;26.80;41.50;100377.98;2007400;88;31286;-73
2021/07/20 12:23:40;;;;;;;8.23;3.92;;;;;;;26.79;41.59;100385.38;2008353;88;33818;-73
2021/07/20 12:26:42;;;;;;;7.05;4.40;;;;;;;26.73;41.50;100382.44;2020341;87;30162;-75
2021/07/20 12:29:45;;;;;;;4.85;3.80;;;;;;;26.71;41.11;100379.05;2019153;87;27673;-73
2021/07/20 12:32:47;;;;;;;5.92;4.50;;;;;;;26.71;41.25;100375.76;1994935;87;29470;-75
2021/07/20 12:35:51;;;;;;;6.78;3.65;;;;;;;26.71;41.24;100382.63;2020288;87;32261;-73
2021/07/20 12:39:19;;;;;;;7.35;3.50;;;;;;;26.71;41.46;100385.91;1991909;87;34236;-73
2021/07/20 12:42:22;;;;;;;9.50;4.05;;;;;;;26.61;41.03;100382.02;2025695;87;30125;-73
2021/07/20 12:45:24;;;;;;;7.53;4.57;;;;;;;26.48;41.31;100378.45;2025871;87;27731;-72
2021/07/20 12:48:30;;;;;;;8.23;4.60;;;;;;;26.44;41.42;100382.59;2026469;87;29051;-73
2021/07/20 12:51:32;;;;;;;6.62;4.00;;;;;;;26.42;41.65;100385.53;2025072;87;31899;-71
2021/07/20 12:54:41;;;;;;;8.28;4.75;;;;;;;26.33;41.52;100384.70;2011115;88;33041;-74
2021/07/20 12:58:00;;;;;;;10.28;3.95;;;;;;;26.27;41.34;100379.91;2008621;88;29637;-74
2021/07/20 13:01:02;;;;;;;9.43;4.53;;;;;;;26.16;41.84;100383.89;2009216;88;27655;-70
2021/07/20 13:04:06;;;;;;;11.85;4.35;;;;;;;26.08;41.84;100390.77;1988593;88;29647;-71
2021/07/20 13:07:08;;;;;;;7.20;4.25;;;;;;;25.97;41.88;100382.38;2008858;88;31799;-70
2021/07/20 13:10:11;;;;;;;7.87;4.12;;;;;;;25.97;42.03;100385.66;1984438;88;33834;-72
2021/07/20 13:13:14;;;;;;;8.40;4.08;;;;;;;25.95;42.12;100387.19;1985428;88;29410;-72
2021/07/20 13:16:21;;;;;;;14.15;4.03;;;;;;;25.93;42.00;100389.25;1985033;88;27684;-69
2021/07/20 13:19:23;;;;;;;8.73;4.33;;;;;;;25.85;41.80;100408.48;2008519;88;28690;-72
2021/07/20 13:22:25;;;;;;;8.65;4.22;;;;;;;25.49;41.83;100402.84;2012800;88;32268;-74
2021/07/20 13:25:28;;;;;;;11.93;5.03;;;;;;;25.31;42.14;100403.86;2013299;88;34203;-75
2021/07/20 13:28:45;;;;;;;9.90;4.55;;;;;;;25.17;42.25;100407.25;2014965;88;29451;-72
2021/07/20 13:31:47;;;;;;;6.35;4.25;;;;;;;25.00;42.49;100409.12;2014351;87;28264;-73
2021/07/20 13:34:50;;;;;;;5.95;4.30;;;;;;;24.88;42.67;100398.48;2010947;88;29020;-74
2021/07/20 13:37:54;;;;;;;8.33;4.40;;;;;;;24.87;42.82;100402.73;2009194;88;32424;-74
2021/07/20 13:40:59;;;;;;;9.67;4.73;;;;;;;24.87;43.14;100406.36;2009272;88;33762;-72
2021/07/20 13:44:04;;;;;;;9.50;4.33;;;;;;;24.88;42.86;100401.22;2009275;88;30103;-74
2021/07/20 13:47:06;;;;;;;9.03;4.92;;;;;;;24.85;42.93;100394.70;2009103;88;27732;-74
2021/07/20 13:50:10;;;;;;;10.58;4.58;;;;;;;24.90;43.05;100398.30;2009058;88;29893;-74
2021/07/20 13:53:16;;;;;;;8.90;5.33;;;;;;;24.95;42.68;100403.27;2009087;88;31032;-74
2021/07/20 13:56:39;;;;;;;6.37;4.28;;;;;;;24.87;42.81;100401.38;2008192;88;34477;-74
2021/07/20 13:59:46;;;;;;;7.92;4.35;;;;;;;24.79;42.87;100406.84;2009024;88;30416;-67
2021/07/20 14:02:48;;;;;;;4.70;4.20;;;;;;;24.80;43.17;100404.45;2009188;88;27757;-74
2021/07/20 14:05:52;;;;;;;7.72;4.83;;;;;;;24.77;42.99;100408.89;2008551;88;28665;-75
2021/07/20 14:08:55;;;;;;;9.15;3.83;;;;;;;24.71;42.76;100407.16;2009312;88;31059;-71
2021/07/20 14:11:57;;;;;;;9.08;4.55;;;;;;;24.62;42.95;100401.28;2008470;88;32575;-75
2021/07/20 14:15:01;;;;;;;5.47;4.50;;;;;;;24.60;43.06;100411.55;2008682;88;30513;-74
2021/07/20 14:18:04;;;;;;;6.37;3.90;;;;;;;24.51;42.76;100403.80;2012972;87;27678;-75
2021/07/20 14:21:11;;;;;;;6.40;4.45;;;;;;;24.35;42.65;100405.95;2008350;88;28664;-74
2021/07/20 14:24:17;;;;;;;8.53;4.28;;;;;;;24.33;43.25;100403.88;1984846;88;31647;-72
2021/07/20 14:27:21;;;;;;;6.20;3.80;;;;;;;24.28;42.77;100405.75;2008632;88;33113;-72
2021/07/20 14:30:25;;;;;;;6.05;4.45;;;;;;;24.19;43.02;100404.49;2014838;88;29316;-75
2021/07/20 14:33:28;;;;;;;6.55;4.45;;;;;;;24.10;43.14;100403.59;1987792;88;27626;-75
2021/07/20 14:36:46;;;;;;;7.25;4.47;;;;;;;24.05;43.25;100408.72;2015903;87;28694;-72
2021/07/20 14:39:55;;;;;;;6.50;4.72;;;;;;;23.94;43.54;100412.55;2014631;87;32096;-74
2021/07/20 14:43:09;;;;;;;7.60;4.28;;;;;;;23.74;43.53;100414.11;2015240;87;33766;-75
2021/07/20 14:46:14;;;;;;;8.00;4.58;;;;;;;23.59;43.54;100404.77;2009473;88;28763;-73
2021/07/20 14:49:22;;;;;;;6.35;4.53;;;;;;;23.41;43.60;100411.64;2008818;88;28470;-75
2021/07/20 14:52:25;;;;;;;8.33;4.50;;;;;;;23.19;44.04;100408.32;2008257;88;29877;-74
2021/07/20 14:55:49;;;;;;;9.63;4.20;;;;;;;23.08;44.31;100419.49;2008959;88;32120;-75
2021/07/20 14:58:59;;;;;;;13.08;4.95;;;;;;;22.94;44.20;100414.89;2008022;88;33072;-76
2021/07/20 15:02:02;;;;;;;8.75;4.70;;;;;;;22.80;44.56;100416.30;2009995;88;29504;-76
2021/07/20 15:05:24;;;;;;;6.97;3.75;;;;;;;22.73;44.86;100414.69;2015261;88;27687;-72
2021/07/20 15:08:27;;;;;;;7.65;5.40;;;;;;;22.67;44.84;100415.80;2015362;88;29621;-75
2021/07/20 15:11:45;;;;;;;12.35;4.40;;;;;;;22.58;44.45;100415.69;2015240;87;31041;-75